createdAt,value
2023-05-04T00:00:51.075Z,30.56
2023-05-04T00:01:51.056Z,30.51
2023-05-04T00:02:51.129Z,30.51
2023-05-04T00:03:51.221Z,30.53
2023-05-04T00:04:51.053Z,30.53
2023-05-04T00:05:51.037Z,30.51
2023-05-04T00:06:51.039Z,30.52
2023-05-04T00:07:51.034Z,30.55
2023-05-04T00:08:51.030Z,30.49
2023-05-04T00:09:51.051Z,30.57
2023-05-04T00:10:51.744Z,30.53
2023-05-04T00:11:51.137Z,30.56
2023-05-04T00:12:51.179Z,30.52
2023-05-04T00:13:51.193Z,30.52
2023-05-04T00:14:51.222Z,30.50
2023-05-04T00:15:51.392Z,30.55
2023-05-04T00:16:51.305Z,30.56
2023-05-04T00:17:51.374Z,30.51
2023-05-04T00:18:51.380Z,30.55
2023-05-04T00:19:51.491Z,30.51
2023-05-04T00:20:51.464Z,30.51
2023-05-04T00:21:51.606Z,30.52
2023-05-04T00:22:51.537Z,30.54
2023-05-04T00:23:51.577Z,30.53
2023-05-04T00:24:51.603Z,30.53
2023-05-04T00:25:51.628Z,30.49
2023-05-04T00:26:51.755Z,30.53
2023-05-04T00:27:51.716Z,30.50
2023-05-04T00:28:51.757Z,30.53
2023-05-04T00:29:51.796Z,30.53
2023-05-04T00:30:51.833Z,30.50
2023-05-04T00:31:51.875Z,30.55
2023-05-04T00:32:52.000Z,30.53
2023-05-04T00:33:51.944Z,30.56
2023-05-04T00:34:51.982Z,30.52
2023-05-04T00:35:52.015Z,30.50
2023-05-04T00:36:52.064Z,30.50
2023-05-04T00:37:52.112Z,30.52
2023-05-04T00:38:52.181Z,30.50
2023-05-04T00:39:52.188Z,30.52
2023-05-04T00:40:52.204Z,30.53
2023-05-04T00:41:52.315Z,30.50
2023-05-04T00:42:52.288Z,30.53
2023-05-04T00:43:53.257Z,30.52
2023-05-04T00:44:52.359Z,30.54
2023-05-04T00:45:52.482Z,30.53
2023-05-04T00:46:52.526Z,30.54
2023-05-04T00:47:52.565Z,30.54
2023-05-04T00:48:52.546Z,30.50
2023-05-04T00:49:52.578Z,30.54
2023-05-04T00:50:52.615Z,30.53
2023-05-04T00:51:52.735Z,30.54
2023-05-04T00:52:52.714Z,30.54
2023-05-04T00:53:52.748Z,30.54
2023-05-04T00:54:52.796Z,30.57
2023-05-04T00:55:52.867Z,30.56
2023-05-04T00:56:52.863Z,30.56
2023-05-04T00:57:52.909Z,30.48
2023-05-04T00:58:52.939Z,30.53
2023-05-04T00:59:52.982Z,30.53
2023-05-04T01:00:53.030Z,30.51
2023-05-04T01:01:53.066Z,30.51
2023-05-04T01:02:53.255Z,30.51
2023-05-04T01:03:53.264Z,30.57
2023-05-04T01:04:53.175Z,30.57
2023-05-04T01:05:53.226Z,30.54
2023-05-04T01:06:53.260Z,30.54
2023-05-04T01:07:53.310Z,30.56
2023-05-04T01:08:53.335Z,30.57
2023-05-04T01:09:53.365Z,30.53
2023-05-04T01:10:53.423Z,30.51
2023-05-04T01:11:53.461Z,30.53
2023-05-04T01:12:53.588Z,30.57
2023-05-04T01:13:53.545Z,30.54
2023-05-04T01:14:53.605Z,30.57
2023-05-04T01:15:53.629Z,30.54
2023-05-04T01:16:53.721Z,30.55
2023-05-04T01:17:53.817Z,30.53
2023-05-04T01:18:53.787Z,30.50
2023-05-04T01:19:53.828Z,30.51
2023-05-04T01:20:53.972Z,30.51
2023-05-04T01:21:53.944Z,30.51
2023-05-04T01:22:54.082Z,30.51
2023-05-04T01:23:54.047Z,30.50
2023-05-04T01:24:54.138Z,30.51
2023-05-04T01:25:54.166Z,30.47
2023-05-04T01:26:54.186Z,30.48
2023-05-04T01:27:54.279Z,30.42
2023-05-04T01:28:54.285Z,30.44
2023-05-04T01:29:54.317Z,30.46
2023-05-04T01:30:54.382Z,30.51
2023-05-04T01:31:54.411Z,30.44
2023-05-04T01:32:54.489Z,30.48
2023-05-04T01:33:55.318Z,30.47
2023-05-04T01:34:55.275Z,30.44
2023-05-04T01:35:54.610Z,30.46
2023-05-04T01:36:54.654Z,30.46
2023-05-04T01:37:54.703Z,30.42
2023-05-04T01:38:54.762Z,30.46
2023-05-04T01:39:54.826Z,30.42
2023-05-04T01:40:54.854Z,30.44
2023-05-04T01:41:54.909Z,30.42
2023-05-04T01:42:54.958Z,30.43
2023-05-04T01:43:55.096Z,30.41
2023-05-04T01:44:55.063Z,30.33
2023-05-04T01:45:55.143Z,30.42
2023-05-04T01:46:55.158Z,30.41
2023-05-04T01:47:55.265Z,30.38
2023-05-04T01:48:55.268Z,30.45
2023-05-04T01:49:55.312Z,30.38
2023-05-04T01:50:55.356Z,30.44
2023-05-04T01:51:55.437Z,30.41
2023-05-04T01:52:55.459Z,30.35
2023-05-04T01:53:55.509Z,30.42
2023-05-04T01:54:55.559Z,30.38
2023-05-04T01:55:55.614Z,30.45
2023-05-04T01:56:55.659Z,30.44
2023-05-04T01:57:55.730Z,30.45
2023-05-04T01:58:55.789Z,30.49
2023-05-04T01:59:55.845Z,30.49
2023-05-04T02:00:55.897Z,30.42
2023-05-04T02:01:55.994Z,30.44
2023-05-04T02:02:56.171Z,30.37
2023-05-04T02:03:56.177Z,30.44
2023-05-04T02:04:56.123Z,30.41
2023-05-04T02:05:56.193Z,30.38
2023-05-04T02:06:56.240Z,30.41
2023-05-04T02:07:56.284Z,30.42
2023-05-04T02:08:56.434Z,30.44
2023-05-04T02:09:56.400Z,30.40
2023-05-04T02:10:56.500Z,30.38
2023-05-04T02:11:56.510Z,30.38
2023-05-04T02:12:56.605Z,30.45
2023-05-04T02:13:56.618Z,30.39
2023-05-04T02:14:56.667Z,30.42
2023-05-04T02:15:56.732Z,30.45
2023-05-04T02:16:56.787Z,30.45
2023-05-04T02:17:56.968Z,30.44
2023-05-04T02:18:56.899Z,30.45
2023-05-04T02:19:56.958Z,30.47
2023-05-04T02:20:57.010Z,30.41
2023-05-04T02:21:57.064Z,30.38
2023-05-04T02:22:57.122Z,30.42
2023-05-04T02:23:57.203Z,30.38
2023-05-04T02:24:57.228Z,30.42
2023-05-04T02:25:57.289Z,30.49
2023-05-04T02:26:57.436Z,30.46
2023-05-04T02:27:57.391Z,30.47
2023-05-04T02:28:57.451Z,30.45
2023-05-04T02:29:57.491Z,30.41
2023-05-04T02:30:57.550Z,30.44
2023-05-04T02:31:57.762Z,30.44
2023-05-04T02:32:57.687Z,30.43
2023-05-04T02:33:57.727Z,30.45
2023-05-04T02:34:57.849Z,30.51
2023-05-04T02:35:57.849Z,30.45
2023-05-04T02:36:57.895Z,30.44
2023-05-04T02:37:57.953Z,30.42
2023-05-04T02:38:58.018Z,30.39
2023-05-04T02:39:58.066Z,30.41
2023-05-04T02:40:58.123Z,30.41
2023-05-04T02:41:58.180Z,30.46
2023-05-04T02:42:58.231Z,30.47
2023-05-04T02:43:58.290Z,30.41
2023-05-04T02:44:58.353Z,30.44
2023-05-04T02:45:58.496Z,30.46
2023-05-04T02:46:58.476Z,30.47
2023-05-04T02:47:58.578Z,30.46
2023-05-04T02:48:58.590Z,30.48
2023-05-04T02:49:58.648Z,30.47
2023-05-04T02:50:58.690Z,30.46
2023-05-04T02:51:58.757Z,30.43
2023-05-04T02:52:58.806Z,30.46
2023-05-04T02:53:58.864Z,30.46
2023-05-04T02:54:58.906Z,30.47
2023-05-04T02:55:58.973Z,30.50
2023-05-04T02:56:59.065Z,30.55
2023-05-04T02:57:59.068Z,30.49
2023-05-04T02:58:59.116Z,30.50
2023-05-04T02:59:59.178Z,30.50
2023-05-04T03:00:59.246Z,30.54
2023-05-04T03:01:59.336Z,30.49
2023-05-04T03:02:59.347Z,30.51
2023-05-04T03:03:59.459Z,30.53
2023-05-04T03:04:59.429Z,30.52
2023-05-04T03:05:59.486Z,30.55
2023-05-04T03:06:59.548Z,30.58
2023-05-04T03:07:59.588Z,30.52
2023-05-04T03:08:59.694Z,30.56
2023-05-04T03:09:59.695Z,30.52
2023-05-04T03:10:59.725Z,30.55
2023-05-04T03:11:59.778Z,30.49
2023-05-04T03:12:59.837Z,30.55
2023-05-04T03:13:59.871Z,30.49
2023-05-04T03:14:59.935Z,30.45
2023-05-04T03:15:59.979Z,30.41
2023-05-04T03:17:00.014Z,30.42
2023-05-04T03:18:00.248Z,30.42
2023-05-04T03:19:00.112Z,30.42
2023-05-04T03:20:00.177Z,30.44
2023-05-04T03:21:00.184Z,30.40
2023-05-04T03:22:00.230Z,30.41
2023-05-04T03:23:00.259Z,30.37
2023-05-04T03:24:00.303Z,30.46
2023-05-04T03:25:00.342Z,30.38
2023-05-04T03:26:00.370Z,30.33
2023-05-04T03:27:00.415Z,30.30
2023-05-04T03:28:00.461Z,30.30
2023-05-04T03:29:00.505Z,30.25
2023-05-04T03:30:00.549Z,30.29
2023-05-04T03:31:00.580Z,30.29
2023-05-04T03:32:00.656Z,30.32
2023-05-04T03:33:00.676Z,30.22
2023-05-04T03:34:01.408Z,30.26
2023-05-04T03:35:02.598Z,30.29
2023-05-04T03:36:00.702Z,30.22
2023-05-04T03:37:00.689Z,30.24
2023-05-04T03:38:00.690Z,30.24
2023-05-04T03:39:00.685Z,30.27
2023-05-04T03:40:00.683Z,30.22
2023-05-04T03:41:00.667Z,30.29
2023-05-04T03:42:00.676Z,30.26
2023-05-04T03:43:00.655Z,30.19
2023-05-04T03:44:00.658Z,30.21
2023-05-04T03:45:03.195Z,30.22
2023-05-04T03:46:00.766Z,30.17
2023-05-04T03:47:00.645Z,30.22
2023-05-04T03:48:00.663Z,30.21
2023-05-04T03:49:00.619Z,30.18
2023-05-04T03:50:00.612Z,30.21
2023-05-04T03:51:00.613Z,30.24
2023-05-04T03:52:00.609Z,30.17
2023-05-04T03:53:00.590Z,30.18
2023-05-04T03:54:00.582Z,30.19
2023-05-04T03:55:00.581Z,30.22
2023-05-04T03:56:00.571Z,30.28
2023-05-04T03:57:00.558Z,30.25
2023-05-04T03:58:00.551Z,30.25
2023-05-04T03:59:00.545Z,30.22
2023-05-04T04:00:00.550Z,30.22
2023-05-04T04:01:00.533Z,30.27
2023-05-04T04:02:00.545Z,30.24
2023-05-04T04:03:00.572Z,30.20
2023-05-04T04:04:00.599Z,30.22
2023-05-04T04:05:00.512Z,30.20
2023-05-04T04:06:00.497Z,30.15
2023-05-04T04:07:00.490Z,30.14
2023-05-04T04:08:00.491Z,30.18
2023-05-04T04:09:00.488Z,30.17
2023-05-04T04:10:00.496Z,30.21
2023-05-04T04:11:00.495Z,30.14
2023-05-04T04:12:00.538Z,30.13
2023-05-04T04:13:00.490Z,30.17
2023-05-04T04:14:00.442Z,30.17
2023-05-04T04:15:00.444Z,30.10
2023-05-04T04:16:00.497Z,30.13
2023-05-04T04:17:00.422Z,30.10
2023-05-04T04:18:00.439Z,30.13
2023-05-04T04:19:00.411Z,30.13
2023-05-04T04:20:00.403Z,30.10
2023-05-04T04:21:00.389Z,30.12
2023-05-04T04:22:00.406Z,30.12
2023-05-04T04:23:00.391Z,30.13
2023-05-04T04:24:00.369Z,30.12
2023-05-04T04:25:00.366Z,30.17
2023-05-04T04:26:00.362Z,30.16
2023-05-04T04:27:00.369Z,30.12
2023-05-04T04:28:00.353Z,30.12
2023-05-04T04:29:00.344Z,30.09
2023-05-04T04:30:00.345Z,30.08
2023-05-04T04:31:00.352Z,30.09
2023-05-04T04:32:00.354Z,30.05
2023-05-04T04:33:00.331Z,30.08
2023-05-04T04:34:00.308Z,30.06
2023-05-04T04:35:00.328Z,30.05
2023-05-04T04:36:00.298Z,30.09
2023-05-04T04:37:00.295Z,30.08
2023-05-04T04:38:02.881Z,30.03
2023-05-04T04:39:00.290Z,30.05
2023-05-04T04:40:00.276Z,30.08
2023-05-04T04:41:00.263Z,30.06
2023-05-04T04:42:00.257Z,30.09
2023-05-04T04:43:00.262Z,30.08
2023-05-04T04:44:00.285Z,30.11
2023-05-04T04:45:00.251Z,30.10
2023-05-04T04:46:00.225Z,30.12
2023-05-04T04:47:00.280Z,30.09
2023-05-04T04:48:00.275Z,30.12
2023-05-04T04:49:00.200Z,30.05
2023-05-04T04:50:00.229Z,30.11
2023-05-04T04:51:00.254Z,30.11
2023-05-04T04:52:00.182Z,30.05
2023-05-04T04:53:00.248Z,30.04
2023-05-04T04:54:00.160Z,30.07
2023-05-04T04:55:00.231Z,30.04
2023-05-04T04:56:00.222Z,30.02
2023-05-04T04:57:00.191Z,29.99
2023-05-04T04:58:00.162Z,29.98
2023-05-04T04:59:00.176Z,30.05
2023-05-04T05:00:00.119Z,30.01
2023-05-04T05:01:00.165Z,29.99
2023-05-04T05:02:00.164Z,30.02
2023-05-04T05:03:00.321Z,30.01
2023-05-04T05:04:00.090Z,30.02
2023-05-04T05:05:00.237Z,30.08
2023-05-04T05:06:00.106Z,30.10
2023-05-04T05:07:00.076Z,30.10
2023-05-04T05:08:00.061Z,30.02
2023-05-04T05:09:00.055Z,30.01
2023-05-04T05:10:00.058Z,29.95
2023-05-04T05:11:00.053Z,30.02
2023-05-04T05:12:00.042Z,29.98
2023-05-04T05:13:00.413Z,30.01
2023-05-04T05:14:00.053Z,30.05
2023-05-04T05:15:00.022Z,30.05
2023-05-04T05:16:00.025Z,30.08
2023-05-04T05:17:00.167Z,30.04
2023-05-04T05:18:00.058Z,30.06
2023-05-04T05:18:59.992Z,30.06
2023-05-04T05:19:59.982Z,30.08
2023-05-04T05:20:59.991Z,30.05
2023-05-04T05:21:59.987Z,30.05
2023-05-04T05:22:59.959Z,30.09
2023-05-04T05:23:59.942Z,30.06
2023-05-04T05:25:00.019Z,30.09
2023-05-04T05:26:02.644Z,30.30
2023-05-04T05:26:59.933Z,30.25
2023-05-04T05:27:59.923Z,30.72
2023-05-04T05:28:59.903Z,30.68
2023-05-04T05:29:59.900Z,30.83
2023-05-04T05:30:59.910Z,31.56
2023-05-04T05:31:59.893Z,31.62
2023-05-04T05:32:59.906Z,32.00
2023-05-04T05:33:59.887Z,32.27
2023-05-04T05:34:59.889Z,32.83
2023-05-04T05:35:59.877Z,33.18
2023-05-04T05:36:59.869Z,33.36
2023-05-04T05:37:59.940Z,33.79
2023-05-04T05:38:59.849Z,33.92
2023-05-04T05:39:59.840Z,33.97
2023-05-04T05:40:59.853Z,34.30
2023-05-04T05:41:59.842Z,34.40
2023-05-04T05:42:59.827Z,34.82
2023-05-04T05:43:59.809Z,35.10
2023-05-04T05:44:59.804Z,35.29
2023-05-04T05:45:59.807Z,35.61
2023-05-04T05:46:59.797Z,35.74
2023-05-04T05:47:59.801Z,35.95
2023-05-04T05:49:00.387Z,36.09
2023-05-04T05:49:59.789Z,36.33
2023-05-04T05:50:59.777Z,36.46
2023-05-04T05:51:59.765Z,36.59
2023-05-04T05:52:59.757Z,36.80
2023-05-04T05:53:59.783Z,36.92
2023-05-04T05:55:02.244Z,37.07
2023-05-04T05:55:59.737Z,37.21
2023-05-04T05:56:59.738Z,37.60
2023-05-04T05:57:59.720Z,37.71
2023-05-04T05:58:59.784Z,37.91
2023-05-04T05:59:59.710Z,38.02
2023-05-04T06:00:59.715Z,37.98
2023-05-04T06:01:59.734Z,38.17
2023-05-04T06:02:59.780Z,38.33
2023-05-04T06:03:59.827Z,38.69
2023-05-04T06:04:59.857Z,38.94
2023-05-04T06:06:00.397Z,39.12
2023-05-04T06:06:59.667Z,39.34
2023-05-04T06:07:59.758Z,39.38
2023-05-04T06:08:59.663Z,39.46
2023-05-04T06:09:59.652Z,39.63
2023-05-04T06:10:59.647Z,39.79
2023-05-04T06:11:59.649Z,39.97
2023-05-04T06:13:00.489Z,40.10
2023-05-04T06:13:59.629Z,40.41
2023-05-04T06:14:59.617Z,40.34
2023-05-04T06:15:59.628Z,40.65
2023-05-04T06:16:59.594Z,40.58
2023-05-04T06:17:59.652Z,40.68
2023-05-04T06:18:59.582Z,40.82
2023-05-04T06:19:59.576Z,41.13
2023-05-04T06:20:59.682Z,41.09
2023-05-04T06:21:59.561Z,41.39
2023-05-04T06:22:59.584Z,41.32
2023-05-04T06:23:59.568Z,41.39
2023-05-04T06:25:03.613Z,41.51
2023-05-04T06:26:00.552Z,42.40
2023-05-04T06:26:59.536Z,39.99
2023-05-04T06:27:59.540Z,38.86
2023-05-04T06:28:59.531Z,39.00
2023-05-04T06:29:59.511Z,37.98
2023-05-04T06:30:59.509Z,37.23
2023-05-04T06:31:59.574Z,38.90
2023-05-04T06:32:59.542Z,36.95
2023-05-04T06:33:59.496Z,36.80
2023-05-04T06:34:59.482Z,36.59
2023-05-04T06:35:59.473Z,36.10
2023-05-04T06:36:59.487Z,35.67
2023-05-04T06:37:59.485Z,36.75
2023-05-04T06:38:59.496Z,35.77
2023-05-04T06:39:59.656Z,35.23
2023-05-04T06:40:59.614Z,34.63
2023-05-04T06:41:59.684Z,34.21
2023-05-04T06:42:59.732Z,34.87
2023-05-04T06:43:59.808Z,34.49
2023-05-04T06:44:59.880Z,34.18
2023-05-04T06:45:59.931Z,34.19
2023-05-04T06:46:59.979Z,34.14
2023-05-04T06:48:00.064Z,33.64
2023-05-04T06:49:00.090Z,33.69
2023-05-04T06:50:00.126Z,33.21
2023-05-04T06:51:01.527Z,33.00
2023-05-04T06:52:00.129Z,33.19
2023-05-04T06:53:00.134Z,33.38
2023-05-04T06:54:00.206Z,33.26
2023-05-04T06:55:00.180Z,33.35
2023-05-04T06:56:00.137Z,33.31
2023-05-04T06:57:00.133Z,32.83
2023-05-04T06:58:00.151Z,32.75
2023-05-04T06:59:00.099Z,32.43
2023-05-04T07:00:00.107Z,32.79
2023-05-04T07:01:00.115Z,32.73
2023-05-04T07:02:00.062Z,32.45
2023-05-04T07:03:00.142Z,33.12
2023-05-04T07:04:00.126Z,32.47
2023-05-04T07:05:00.044Z,33.06
2023-05-04T07:06:00.053Z,33.14
2023-05-04T07:07:00.040Z,33.02
2023-05-04T07:08:00.428Z,32.69
2023-05-04T07:09:00.013Z,32.97
2023-05-04T07:10:00.041Z,32.40
2023-05-04T07:11:00.008Z,32.71
2023-05-04T07:12:00.009Z,32.15
2023-05-04T07:13:00.004Z,31.97
2023-05-04T07:13:59.986Z,31.37
2023-05-04T07:14:59.978Z,31.70
2023-05-04T07:16:00.011Z,32.35
2023-05-04T07:16:59.964Z,32.34
2023-05-04T07:18:00.168Z,31.54
2023-05-04T07:18:59.952Z,31.91
2023-05-04T07:19:59.957Z,31.98
2023-05-04T07:21:16.323Z,32.10
2023-05-04T07:22:01.913Z,31.75
2023-05-04T07:22:59.918Z,31.95
2023-05-04T07:23:59.907Z,32.21
2023-05-04T07:25:00.481Z,31.74
2023-05-04T07:25:59.911Z,31.18
2023-05-04T07:27:00.839Z,32.15
2023-05-04T07:28:01.378Z,31.10
2023-05-04T07:28:59.914Z,31.98
2023-05-04T07:29:59.998Z,31.54
2023-05-04T07:31:00.016Z,31.83
2023-05-04T07:32:00.122Z,31.15
2023-05-04T07:33:00.180Z,31.33
2023-05-04T07:34:00.164Z,30.78
2023-05-04T07:35:00.219Z,31.65
2023-05-04T07:36:00.267Z,31.95
2023-05-04T07:37:00.308Z,32.13
2023-05-04T07:38:00.347Z,31.71
2023-05-04T07:39:00.384Z,32.26
2023-05-04T07:40:00.424Z,32.01
2023-05-04T07:41:01.422Z,31.97
2023-05-04T07:42:00.482Z,32.22
2023-05-04T07:43:00.554Z,31.89
2023-05-04T07:44:01.445Z,31.62
2023-05-04T07:45:00.546Z,31.89
2023-05-04T07:46:00.830Z,31.99
2023-05-04T07:47:00.591Z,31.83
2023-05-04T07:48:00.765Z,31.83
2023-05-04T07:49:01.419Z,31.87
2023-05-04T07:50:00.655Z,31.83
2023-05-04T07:51:00.663Z,31.05
2023-05-04T07:52:00.658Z,31.73
2023-05-04T07:53:00.666Z,31.77
2023-05-04T07:54:00.701Z,30.81
2023-05-04T07:55:00.691Z,31.47
2023-05-04T07:56:00.706Z,31.03
2023-05-04T07:57:01.348Z,31.58
2023-05-04T07:58:00.759Z,31.35
2023-05-04T07:59:00.709Z,31.58
2023-05-04T08:00:01.390Z,31.52
2023-05-04T08:01:00.728Z,31.56
2023-05-04T08:02:00.768Z,31.66
2023-05-04T08:03:00.779Z,31.74
2023-05-04T08:04:00.724Z,31.67
2023-05-04T08:05:01.453Z,31.69
2023-05-04T08:06:00.736Z,31.67
2023-05-04T08:07:00.723Z,31.43
2023-05-04T08:08:00.786Z,31.33
2023-05-04T08:09:00.741Z,31.63
2023-05-04T08:10:00.764Z,31.29
2023-05-04T08:11:12.294Z,30.86
2023-05-04T08:12:01.795Z,31.35
2023-05-04T08:13:00.831Z,30.17
2023-05-04T08:14:00.940Z,29.92
2023-05-04T08:15:01.423Z,29.92
2023-05-04T08:16:00.774Z,30.20
2023-05-04T08:17:00.767Z,30.19
2023-05-04T08:18:00.830Z,28.61
2023-05-04T08:19:00.754Z,28.22
2023-05-04T08:20:00.740Z,28.13
2023-05-04T08:21:00.750Z,28.44
2023-05-04T08:22:00.726Z,27.53
2023-05-04T08:23:00.730Z,27.11
2023-05-04T08:24:00.731Z,27.12
2023-05-04T08:25:00.716Z,27.77
2023-05-04T08:26:00.719Z,27.77
2023-05-04T08:27:07.899Z,28.32
2023-05-04T08:28:01.954Z,28.79
2023-05-04T08:29:00.706Z,28.98
2023-05-04T08:30:01.098Z,29.18
2023-05-04T08:31:01.445Z,29.30
2023-05-04T08:32:01.526Z,29.36
2023-05-04T08:33:00.707Z,29.52
2023-05-04T08:34:00.673Z,29.63
2023-05-04T08:35:01.745Z,29.81
2023-05-04T08:36:00.661Z,29.70
2023-05-04T08:37:00.655Z,29.94
2023-05-04T08:38:00.692Z,30.03
2023-05-04T08:39:00.640Z,30.21
2023-05-04T08:40:00.647Z,30.33
2023-05-04T08:41:00.628Z,30.39
2023-05-04T08:42:00.695Z,30.49
2023-05-04T08:43:01.456Z,30.56
2023-05-04T08:44:00.812Z,30.65
2023-05-04T08:45:01.456Z,30.83
2023-05-04T08:46:00.977Z,30.91
2023-05-04T08:47:00.977Z,31.02
2023-05-04T08:48:01.076Z,31.05
2023-05-04T08:49:01.105Z,31.16
2023-05-04T08:50:01.182Z,31.48
2023-05-04T08:51:01.206Z,31.75
2023-05-04T08:52:01.268Z,31.67
2023-05-04T08:53:01.308Z,31.64
2023-05-04T08:54:01.350Z,31.81
2023-05-04T08:55:01.400Z,31.98
2023-05-04T08:56:01.489Z,32.04
2023-05-04T08:57:01.473Z,32.00
2023-05-04T08:58:01.525Z,32.00
2023-05-04T08:59:01.563Z,32.35
2023-05-04T09:00:01.592Z,32.59
2023-05-04T09:01:01.711Z,32.70
2023-05-04T09:02:01.786Z,32.73
2023-05-04T09:03:01.784Z,32.79
2023-05-04T09:04:01.749Z,33.05
2023-05-04T09:05:01.827Z,33.22
2023-05-04T09:06:01.788Z,33.31
2023-05-04T09:07:01.815Z,33.27
2023-05-04T09:08:01.822Z,33.36
2023-05-04T09:09:01.858Z,33.40
2023-05-04T09:10:01.872Z,33.51
2023-05-04T09:11:01.873Z,33.58
2023-05-04T09:12:01.890Z,33.56
2023-05-04T09:13:01.978Z,33.65
2023-05-04T09:14:01.950Z,33.72
2023-05-04T09:15:02.122Z,33.67
2023-05-04T09:16:01.965Z,32.28
2023-05-04T09:17:02.077Z,32.62
2023-05-04T09:18:02.079Z,31.83
2023-05-04T09:19:02.050Z,31.98
2023-05-04T09:20:02.079Z,31.38
2023-05-04T09:21:02.140Z,31.51
2023-05-04T09:22:02.154Z,31.93
2023-05-04T09:23:02.237Z,31.46
2023-05-04T09:24:02.292Z,31.61
2023-05-04T09:25:02.348Z,32.00
2023-05-04T09:26:02.316Z,32.31
2023-05-04T09:27:02.344Z,32.58
2023-05-04T09:28:02.383Z,32.99
2023-05-04T09:29:02.404Z,33.13
2023-05-04T09:30:02.460Z,33.32
2023-05-04T09:31:02.477Z,33.35
2023-05-04T09:32:02.495Z,33.51
2023-05-04T09:33:02.527Z,33.54
2023-05-04T09:34:02.500Z,33.61
2023-05-04T09:35:02.710Z,33.63
2023-05-04T09:36:03.393Z,33.62
2023-05-04T09:37:02.562Z,33.67
2023-05-04T09:38:02.568Z,33.90
2023-05-04T09:39:02.655Z,33.98
2023-05-04T09:40:03.485Z,33.97
2023-05-04T09:41:02.609Z,34.08
2023-05-04T09:42:02.672Z,34.15
2023-05-04T09:43:02.640Z,34.42
2023-05-04T09:44:02.652Z,34.54
2023-05-04T09:45:02.845Z,34.57
2023-05-04T09:46:02.722Z,34.64
2023-05-04T09:47:02.682Z,34.67
2023-05-04T09:48:02.776Z,34.70
2023-05-04T09:49:02.701Z,34.08
2023-05-04T09:50:02.951Z,34.71
2023-05-04T09:51:02.712Z,34.64
2023-05-04T09:52:02.767Z,34.56
2023-05-04T09:53:02.735Z,34.58
2023-05-04T09:54:02.724Z,34.73
2023-05-04T09:55:02.869Z,34.83
2023-05-04T09:56:04.444Z,34.78
2023-05-04T09:57:02.731Z,34.46
2023-05-04T09:58:03.485Z,34.47
2023-05-04T09:59:02.715Z,34.28
2023-05-04T10:00:02.744Z,34.34
2023-05-04T10:01:02.717Z,34.45
2023-05-04T10:02:14.478Z,34.37
2023-05-04T10:03:03.744Z,34.26
2023-05-04T10:04:02.675Z,34.30
2023-05-04T10:05:02.904Z,34.12
2023-05-04T10:06:02.681Z,34.03
2023-05-04T10:07:02.657Z,33.86
2023-05-04T10:08:03.566Z,33.98
2023-05-04T10:09:02.656Z,34.02
2023-05-04T10:10:02.636Z,34.04
2023-05-04T10:11:02.705Z,34.04
2023-05-04T10:12:02.627Z,33.74
2023-05-04T10:13:02.648Z,33.52
2023-05-04T10:14:02.683Z,33.16
2023-05-04T10:15:02.656Z,32.75
2023-05-04T10:16:02.692Z,32.69
2023-05-04T10:17:02.599Z,32.58
2023-05-04T10:18:02.611Z,32.49
2023-05-04T10:19:02.583Z,32.43
2023-05-04T10:20:02.573Z,32.40
2023-05-04T10:21:02.572Z,32.23
2023-05-04T10:22:02.557Z,32.17
2023-05-04T10:23:02.635Z,32.14
2023-05-04T10:24:02.552Z,32.27
2023-05-04T10:25:02.725Z,32.17
2023-05-04T10:26:02.550Z,32.19
2023-05-04T10:27:02.534Z,32.13
2023-05-04T10:28:02.559Z,32.17
2023-05-04T10:29:02.507Z,32.14
2023-05-04T10:30:02.505Z,32.20
2023-05-04T10:31:02.506Z,32.17
2023-05-04T10:32:02.547Z,32.15
2023-05-04T10:33:02.571Z,32.07
2023-05-04T10:34:02.573Z,32.10
2023-05-04T10:35:02.664Z,32.11
2023-05-04T10:36:02.636Z,32.14
2023-05-04T10:37:02.728Z,32.11
2023-05-04T10:38:02.733Z,32.11
2023-05-04T10:39:03.005Z,32.09
2023-05-04T10:40:02.809Z,32.12
2023-05-04T10:41:02.831Z,32.16
2023-05-04T10:42:02.905Z,32.16
2023-05-04T10:43:02.951Z,32.19
2023-05-04T10:44:02.984Z,32.21
2023-05-04T10:45:03.103Z,32.16
2023-05-04T10:46:03.290Z,32.21
2023-05-04T10:47:03.122Z,32.20
2023-05-04T10:48:03.202Z,32.24
2023-05-04T10:49:03.228Z,32.25
2023-05-04T10:50:03.278Z,32.28
2023-05-04T10:51:03.328Z,32.31
2023-05-04T10:52:03.366Z,32.26
2023-05-04T10:53:03.432Z,32.31
2023-05-04T10:54:04.007Z,32.29
2023-05-04T10:55:03.751Z,32.26
2023-05-04T10:56:03.614Z,32.33
2023-05-04T10:57:03.710Z,32.37
2023-05-04T10:58:03.757Z,32.32
2023-05-04T10:59:03.792Z,32.34
2023-05-04T11:00:03.847Z,32.38
2023-05-04T11:01:04.515Z,32.38
2023-05-04T11:02:04.104Z,32.41
2023-05-04T11:03:04.207Z,32.45
2023-05-04T11:04:04.517Z,32.40
2023-05-04T11:05:04.522Z,32.44
2023-05-04T11:06:04.193Z,32.46
2023-05-04T11:07:04.261Z,32.45
2023-05-04T11:08:04.316Z,32.49
2023-05-04T11:09:04.371Z,32.53
2023-05-04T11:10:04.433Z,32.45
2023-05-04T11:11:04.500Z,32.52
2023-05-04T11:12:04.573Z,32.51
2023-05-04T11:13:06.461Z,32.52
2023-05-04T11:14:04.625Z,32.55
2023-05-04T11:15:04.787Z,32.55
2023-05-04T11:16:04.622Z,32.64
2023-05-04T11:17:07.416Z,32.69
2023-05-04T11:18:05.636Z,32.67
2023-05-04T11:19:04.578Z,32.66
2023-05-04T11:20:04.569Z,32.62
2023-05-04T11:21:05.509Z,32.63
2023-05-04T11:22:04.560Z,32.66
2023-05-04T11:23:04.535Z,32.66
2023-05-04T11:24:04.543Z,32.63
2023-05-04T11:25:04.598Z,32.63
2023-05-04T11:26:04.571Z,32.64
2023-05-04T11:27:04.635Z,32.67
2023-05-04T11:28:07.517Z,32.66
2023-05-04T11:29:04.700Z,32.67
2023-05-04T11:30:04.712Z,32.66
2023-05-04T11:31:04.697Z,32.67
2023-05-04T11:32:04.673Z,32.63
2023-05-04T11:33:04.716Z,32.63
2023-05-04T11:34:04.762Z,32.64
2023-05-04T11:35:05.701Z,32.61
2023-05-04T11:36:05.525Z,32.64
2023-05-04T11:37:04.657Z,32.63
2023-05-04T11:38:04.654Z,32.63
2023-05-04T11:39:04.631Z,32.60
2023-05-04T11:40:05.522Z,32.58
2023-05-04T11:41:04.658Z,32.60
2023-05-04T11:42:04.606Z,32.60
2023-05-04T11:43:04.605Z,32.63
2023-05-04T11:44:04.587Z,32.67
2023-05-04T11:45:04.751Z,32.61
2023-05-04T11:46:04.669Z,32.97
2023-05-04T11:47:04.574Z,32.97
2023-05-04T11:48:04.608Z,33.38
2023-05-04T11:49:04.563Z,33.77
2023-05-04T11:50:04.550Z,34.16
2023-05-04T11:51:04.557Z,33.98
2023-05-04T11:52:04.531Z,33.85
2023-05-04T11:53:04.547Z,33.96
2023-05-04T11:54:04.575Z,34.19
2023-05-04T11:55:04.908Z,34.03
2023-05-04T11:56:04.721Z,34.06
2023-05-04T11:57:04.696Z,34.02
2023-05-04T11:58:04.736Z,34.16
2023-05-04T11:59:04.772Z,34.31
2023-05-04T12:00:04.802Z,34.45
2023-05-04T12:01:05.029Z,34.50
2023-05-04T12:02:04.906Z,34.52
2023-05-04T12:03:04.955Z,34.63
2023-05-04T12:04:05.039Z,35.06
2023-05-04T12:05:05.526Z,34.96
2023-05-04T12:06:05.178Z,35.10
2023-05-04T12:07:05.080Z,35.28
2023-05-04T12:08:05.092Z,36.01
2023-05-04T12:09:05.099Z,36.32
2023-05-04T12:10:05.145Z,35.95
2023-05-04T12:11:05.175Z,35.91
2023-05-04T12:12:06.116Z,35.91
2023-05-04T12:13:05.267Z,35.88
2023-05-04T12:14:05.271Z,35.73
2023-05-04T12:15:05.509Z,35.78
2023-05-04T12:16:05.371Z,35.87
2023-05-04T12:17:05.364Z,36.19
2023-05-04T12:18:05.447Z,36.05
2023-05-04T12:19:05.441Z,36.04
2023-05-04T12:20:05.432Z,36.07
2023-05-04T12:21:05.425Z,35.84
2023-05-04T12:22:05.416Z,35.73
2023-05-04T12:23:05.415Z,35.80
2023-05-04T12:24:05.416Z,35.24
2023-05-04T12:25:05.586Z,35.07
2023-05-04T12:26:05.392Z,35.32
2023-05-04T12:27:05.383Z,33.88
2023-05-04T12:28:05.376Z,34.41
2023-05-04T12:29:05.375Z,33.36
2023-05-04T12:30:05.414Z,32.46
2023-05-04T12:31:05.469Z,33.19
2023-05-04T12:32:05.527Z,33.19
2023-05-04T12:33:05.690Z,33.54
2023-05-04T12:34:05.604Z,33.61
2023-05-04T12:35:05.776Z,32.76
2023-05-04T12:36:05.697Z,33.12
2023-05-04T12:37:05.760Z,32.20
2023-05-04T12:38:05.779Z,32.36
2023-05-04T12:39:05.799Z,32.63
2023-05-04T12:40:17.256Z,32.50
2023-05-04T12:41:06.840Z,32.61
2023-05-04T12:42:05.862Z,32.60
2023-05-04T12:43:05.819Z,32.50
2023-05-04T12:44:05.810Z,32.36
2023-05-04T12:45:06.066Z,32.34
2023-05-04T12:46:06.596Z,32.39
2023-05-04T12:47:05.819Z,32.33
2023-05-04T12:48:05.826Z,32.33
2023-05-04T12:49:05.794Z,32.31
2023-05-04T12:50:05.772Z,32.31
2023-05-04T12:51:05.809Z,32.28
2023-05-04T12:52:05.767Z,32.30
2023-05-04T12:53:05.824Z,32.24